Time;durP1;ratioP1;P1;durP2;ratioP2;P2;SDS_P1;SDS_P2;PMS_P1;PMS_P2;Temp;Humidity;BMP_temperature;BMP_pressure;BME280_temperature;BME280_humidity;BME280_pressure;Samples;Min_cycle;Max_cycle;Signal;HPM_P1;HPM_P2
2021/08/01 00:01:04;;;;;;;13.93;7.30;;;;;;;22.74;100.00;98380.61;1664829;85;20952;-69
2021/08/01 00:03:33;;;;;;;10.35;7.40;;;;;;;22.68;100.00;98374.27;1648923;87;20984;-68
2021/08/01 00:06:01;;;;;;;12.43;8.50;;;;;;;22.65;100.00;98375.34;1648903;87;21008;-68
2021/08/01 00:08:30;;;;;;;14.45;9.30;;;;;;;22.56;100.00;98378.17;1666586;84;21546;-68
2021/08/01 00:10:59;;;;;;;13.80;8.40;;;;;;;22.44;100.00;98379.47;1669011;84;21446;-69
2021/08/01 00:13:27;;;;;;;13.05;8.78;;;;;;;22.29;100.00;98383.55;1646101;85;21043;-69
2021/08/01 00:15:55;;;;;;;14.20;8.83;;;;;;;22.24;100.00;98387.02;1668974;85;21104;-69
2021/08/01 00:18:24;;;;;;;11.85;8.40;;;;;;;22.25;100.00;98393.27;1669042;84;20992;-69
2021/08/01 00:20:52;;;;;;;11.48;8.95;;;;;;;22.24;100.00;98396.43;1667717;85;21016;-68
2021/08/01 00:23:20;;;;;;;11.03;8.73;;;;;;;22.23;100.00;98413.96;1668866;85;21550;-69
2021/08/01 00:25:49;;;;;;;10.18;7.75;;;;;;;22.17;100.00;98403.61;1668857;85;21530;-68
2021/08/01 00:28:17;;;;;;;9.03;8.00;;;;;;;22.17;100.00;98411.19;1669016;85;20952;-69
2021/08/01 00:30:48;;;;;;;13.22;9.00;;;;;;;22.19;100.00;98414.64;1668794;85;21474;-68
2021/08/01 00:33:17;;;;;;;14.75;8.70;;;;;;;22.17;100.00;98408.98;1669085;85;20973;-69
2021/08/01 00:35:46;;;;;;;11.40;8.63;;;;;;;22.13;100.00;98404.30;1646046;84;21218;-68
2021/08/01 00:38:15;;;;;;;10.95;7.92;;;;;;;22.12;100.00;98402.57;1668890;85;20956;-69
2021/08/01 00:40:44;;;;;;;9.50;8.48;;;;;;;22.10;100.00;98408.52;1646096;85;20977;-69
2021/08/01 00:43:13;;;;;;;10.48;8.20;;;;;;;22.06;100.00;98401.63;1627689;86;21554;-68
2021/08/01 00:45:42;;;;;;;11.95;8.13;;;;;;;22.01;100.00;98398.34;1650607;86;21444;-69
2021/08/01 00:48:12;;;;;;;16.10;7.85;;;;;;;21.95;100.00;98391.55;1621073;87;21127;-69
2021/08/01 00:50:45;;;;;;;10.50;7.42;;;;;;;21.91;100.00;98394.52;1598719;87;21506;-69
2021/08/01 00:53:14;;;;;;;13.08;8.15;;;;;;;21.88;100.00;98403.64;1650547;86;20870;-68
2021/08/01 00:55:44;;;;;;;27.82;9.08;;;;;;;21.85;100.00;98401.15;1649033;87;20958;-69
2021/08/01 00:58:14;;;;;;;12.93;8.23;;;;;;;21.82;100.00;98412.09;1649039;87;20958;-69
2021/08/01 01:04:00;;;;;;;15.10;8.13;;;;;;;21.82;100.00;98403.17;1649074;87;21457;-69
2021/08/01 01:06:37;;;;;;;11.73;8.58;;;;;;;21.78;100.00;98405.66;1649143;87;21104;-69
2021/08/01 01:09:15;;;;;;;12.25;8.20;;;;;;;21.70;100.00;98402.09;1660961;85;21470;-69
2021/08/01 01:11:59;;;;;;;20.92;8.75;;;;;;;21.70;100.00;98410.14;1684925;84;21086;-69
2021/08/01 01:14:30;;;;;;;11.50;7.92;;;;;;;21.69;100.00;98415.13;1685984;84;21305;-69
2021/08/01 01:17:02;;;;;;;13.00;7.92;;;;;;;21.71;100.00;98415.03;1684896;84;21517;-69
2021/08/01 01:19:53;;;;;;;11.43;7.62;;;;;;;21.73;100.00;98422.51;1684150;85;21664;-69
2021/08/01 01:22:53;;;;;;;33.13;10.43;;;;;;;21.73;100.00;98424.71;1685062;84;21500;-69
2021/08/01 01:26:02;;;;;;;11.40;7.62;;;;;;;21.69;100.00;98410.63;1647897;86;21581;-69
2021/08/01 01:28:42;;;;;;;11.20;7.37;;;;;;;21.66;100.00;98411.30;1683905;85;22000;-69
2021/08/01 01:31:43;;;;;;;12.00;7.70;;;;;;;21.60;100.00;98406.31;1685075;84;20923;-69
2021/08/01 01:34:38;;;;;;;9.53;8.00;;;;;;;21.55;100.00;98410.63;1675235;84;21031;-68
2021/08/01 01:37:11;;;;;;;11.22;7.62;;;;;;;21.51;100.00;98410.44;1674051;84;21043;-69
2021/08/01 01:39:42;;;;;;;9.95;7.42;;;;;;;21.50;100.00;98397.98;1669893;85;21658;-70
2021/08/01 01:42:13;;;;;;;10.95;8.30;;;;;;;21.50;100.00;98393.09;1668794;85;21474;-69
2021/08/01 01:44:44;;;;;;;;;;;;;;;21.48;100.00;98399.89;1671584;85;20963;-69
2021/08/01 01:47:15;;;;;;;11.40;8.83;;;;;;;21.43;100.00;98391.75;1681791;85;20080;-69
2021/08/01 01:49:44;;;;;;;11.50;8.63;;;;;;;21.37;100.00;98384.94;1671888;84;21457;-69
2021/08/01 01:52:15;;;;;;;14.33;8.43;;;;;;;21.34;100.00;98384.66;1672799;84;21503;-69
2021/08/01 01:54:45;;;;;;;15.70;8.50;;;;;;;21.31;100.00;98376.80;1663990;85;21136;-69
2021/08/01 01:57:15;;;;;;;10.70;7.90;;;;;;;21.27;100.00;98363.64;1650407;85;20889;-69
2021/08/01 01:59:44;;;;;;;10.95;8.48;;;;;;;21.25;100.00;98372.26;1667101;85;20932;-69
2021/08/01 02:02:14;;;;;;;12.20;8.23;;;;;;;21.24;100.00;98370.05;1659574;84;20972;-69
2021/08/01 02:04:44;;;;;;;11.55;8.83;;;;;;;21.23;100.00;98362.97;1661736;84;21458;-70
2021/08/01 02:07:34;;;;;;;10.95;8.70;;;;;;;21.23;100.00;98363.45;1667951;85;21146;-70
2021/08/01 02:10:08;;;;;;;10.58;8.08;;;;;;;21.23;100.00;98369.67;1646708;85;20936;-65
2021/08/01 02:12:54;;;;;;;11.05;8.20;;;;;;;21.25;100.00;98360.19;1669052;84;21084;-66
2021/08/01 02:15:28;;;;;;;11.48;8.78;;;;;;;21.26;100.00;98358.75;1651443;85;21032;-65
2021/08/01 02:18:06;;;;;;;11.65;8.20;;;;;;;21.29;100.00;98361.75;1653752;84;26999;-65
2021/08/01 02:20:40;;;;;;;9.83;8.33;;;;;;;21.32;100.00;98363.77;1653148;85;21715;-65
2021/08/01 02:23:26;;;;;;;12.53;7.80;;;;;;;21.35;100.00;98362.72;1669027;85;20953;-65
2021/08/01 02:25:57;;;;;;;12.43;8.00;;;;;;;21.36;100.00;98360.41;1652799;85;21475;-65
2021/08/01 02:28:26;;;;;;;9.83;8.55;;;;;;;21.36;100.00;98367.98;1650924;85;21626;-64
2021/08/01 02:30:54;;;;;;;12.98;8.88;;;;;;;21.34;100.00;98365.02;1631121;86;21472;-65
2021/08/01 02:33:27;;;;;;;10.13;8.58;;;;;;;21.33;100.00;98378.91;1630864;85;21899;-64
2021/08/01 02:35:59;;;;;;;13.22;8.23;;;;;;;21.35;100.00;98369.42;1655981;85;21181;-65
2021/08/01 02:38:29;;;;;;;10.03;8.05;;;;;;;21.34;100.00;98370.37;1640036;86;21039;-64
2021/08/01 02:41:00;;;;;;;11.95;8.03;;;;;;;21.33;100.00;98370.86;1664184;85;21000;-64
2021/08/01 02:43:30;;;;;;;9.37;8.37;;;;;;;21.34;100.00;98371.72;1665765;84;20999;-64
2021/08/01 02:45:59;;;;;;;10.25;8.35;;;;;;;21.31;100.00;98370.56;1652705;85;21844;-64
2021/08/01 02:48:28;;;;;;;9.58;7.87;;;;;;;21.29;100.00;98377.37;1658569;84;21090;-65
2021/08/01 02:51:00;;;;;;;12.43;8.58;;;;;;;21.30;100.00;98375.55;1657645;82;21992;-64
2021/08/01 02:53:28;;;;;;;10.20;8.27;;;;;;;21.32;100.00;98385.70;1688980;83;20962;-64
2021/08/01 02:56:00;;;;;;;10.88;8.28;;;;;;;21.35;100.00;98397.11;1674916;85;21620;-65
2021/08/01 02:58:28;;;;;;;9.40;8.10;;;;;;;21.41;100.00;98393.66;1648982;84;21156;-64
2021/08/01 03:00:56;;;;;;;11.43;8.00;;;;;;;21.41;100.00;98395.87;1642140;84;21119;-65
2021/08/01 03:03:26;;;;;;;10.35;7.50;;;;;;;21.45;100.00;98400.56;1649914;84;21060;-65
2021/08/01 03:05:54;;;;;;;9.95;8.03;;;;;;;21.49;100.00;98396.73;1678617;84;21483;-65
2021/08/01 03:08:25;;;;;;;10.70;8.18;;;;;;;21.49;100.00;98395.39;1676760;84;21030;-64
2021/08/01 03:10:54;;;;;;;12.58;8.40;;;;;;;21.49;100.00;98395.39;1649609;84;21786;-65
2021/08/01 03:13:23;;;;;;;12.65;8.20;;;;;;;21.46;100.00;98384.84;1678520;84;20958;-64
2021/08/01 03:15:53;;;;;;;11.08;7.92;;;;;;;21.45;100.00;98391.17;1653141;84;20971;-64
2021/08/01 03:18:21;;;;;;;9.95;7.65;;;;;;;21.42;100.00;98390.88;1678549;84;20988;-65
2021/08/01 03:20:50;;;;;;;12.78;7.90;;;;;;;21.42;100.00;98381.49;1698201;83;20907;-64
2021/08/01 03:23:24;;;;;;;11.90;7.92;;;;;;;21.43;100.00;98387.24;1687047;83;21150;-65
2021/08/01 03:26:10;;;;;;;12.82;8.43;;;;;;;21.43;100.00;98381.02;1594875;88;21612;-65
2021/08/01 03:28:39;;;;;;;10.08;7.90;;;;;;;21.41;100.00;98381.59;1653806;84;20942;-65
2021/08/01 03:31:10;;;;;;;9.25;7.55;;;;;;;21.42;100.00;98377.47;1676856;83;21037;-65
2021/08/01 03:33:41;;;;;;;10.18;7.62;;;;;;;21.46;100.00;98374.98;1690917;84;21503;-65
2021/08/01 03:36:08;;;;;;;9.50;7.33;;;;;;;21.49;100.00;98374.78;1669266;84;22152;-64
2021/08/01 03:38:57;;;;;;;12.70;8.83;;;;;;;21.54;100.00;98379.86;1646046;87;20927;-65
2021/08/01 03:41:44;;;;;;;15.28;7.83;;;;;;;21.58;100.00;98381.39;1678765;83;21530;-64
2021/08/01 03:44:14;;;;;;;13.48;9.18;;;;;;;21.59;100.00;98377.75;1659201;85;21129;-64
2021/08/01 03:46:43;;;;;;;9.13;7.65;;;;;;;21.62;100.00;98387.81;1678786;83;21510;-64
2021/08/01 03:49:11;;;;;;;11.65;7.45;;;;;;;21.66;100.00;98381.77;1676698;84;21123;-64
2021/08/01 03:51:39;;;;;;;10.78;8.05;;;;;;;21.71;100.00;98385.02;1674454;84;21459;-65
2021/08/01 03:54:07;;;;;;;14.50;7.87;;;;;;;21.75;100.00;98390.58;1668322;85;20999;-67
2021/08/01 03:56:46;;;;;;;10.15;8.00;;;;;;;21.78;100.00;98401.16;1645494;86;21107;-66
2021/08/01 03:59:15;;;;;;;12.05;7.40;;;;;;;21.82;100.00;98402.69;1623912;87;21052;-63
2021/08/01 04:01:44;;;;;;;11.35;6.92;;;;;;;21.81;100.00;98409.02;1610507;87;21179;-63
2021/08/01 04:04:12;;;;;;;9.65;7.10;;;;;;;21.82;100.00;98410.74;1661099;84;20922;-63
2021/08/01 04:06:40;;;;;;;10.53;7.72;;;;;;;21.87;100.00;98414.48;1656339;86;21075;-63
2021/08/01 04:09:09;;;;;;;11.05;7.50;;;;;;;21.94;100.00;98422.04;1656785;85;21489;-63
2021/08/01 04:11:43;;;;;;;10.35;7.15;;;;;;;22.03;100.00;98423.31;1648696;87;20971;-62
2021/08/01 04:14:08;;;;;;;13.25;7.25;;;;;;;22.18;100.00;98429.03;1664294;85;21139;-63
2021/08/01 04:16:37;;;;;;;9.08;7.37;;;;;;;22.35;100.00;98433.34;1667267;85;21011;-63
2021/08/01 04:19:10;;;;;;;15.72;7.87;;;;;;;22.52;100.00;98442.50;1669140;85;21459;-62
2021/08/01 04:21:39;;;;;;;9.88;7.72;;;;;;;22.67;100.00;98430.34;1663460;85;20994;-64
2021/08/01 04:24:08;;;;;;;11.25;7.75;;;;;;;22.81;100.00;98424.49;1656908;85;21010;-62
2021/08/01 04:26:38;;;;;;;8.68;6.92;;;;;;;22.94;100.00;98423.17;1662110;86;20947;-63
2021/08/01 04:29:06;;;;;;;14.03;7.72;;;;;;;23.04;100.00;98426.09;1665220;85;20928;-64
2021/08/01 04:31:35;;;;;;;11.18;7.37;;;;;;;23.14;100.00;98425.36;1651659;85;20985;-62
2021/08/01 04:34:03;;;;;;;10.53;7.78;;;;;;;23.22;100.00;98428.42;1666794;85;20976;-64
2021/08/01 04:36:32;;;;;;;14.68;7.65;;;;;;;23.31;100.00;98419.33;1623648;87;20958;-62
2021/08/01 04:39:20;;;;;;;9.55;7.42;;;;;;;23.38;100.00;98421.48;1679637;84;21027;-62
2021/08/01 04:41:49;;;;;;;12.10;7.47;;;;;;;23.40;100.00;98411.48;1688908;83;21734;-63
2021/08/01 04:44:17;;;;;;;10.80;7.83;;;;;;;23.43;100.00;98413.09;1703393;83;21008;-62
2021/08/01 04:46:46;;;;;;;15.23;8.50;;;;;;;23.44;100.00;98409.43;1685212;84;21580;-62
2021/08/01 04:49:14;;;;;;;9.90;8.20;;;;;;;23.45;100.00;98403.08;1679939;84;20878;-62
2021/08/01 04:51:43;;;;;;;16.87;8.48;;;;;;;23.45;100.00;98404.42;1698669;83;21941;-62
2021/08/01 04:54:10;;;;;;;8.43;7.53;;;;;;;23.46;100.00;98412.39;1677586;84;21006;-62
2021/08/01 04:56:46;;;;;;;12.75;8.38;;;;;;;23.52;100.00;98413.79;1677726;85;20914;-62
2021/08/01 04:59:14;;;;;;;14.85;7.70;;;;;;;23.62;100.00;98408.64;1677748;85;20931;-63
2021/08/01 05:01:46;;;;;;;11.28;7.40;;;;;;;23.69;100.00;98405.93;1678446;84;20916;-62
2021/08/01 05:04:15;;;;;;;15.03;8.20;;;;;;;23.77;100.00;98415.66;1661697;84;21638;-64
2021/08/01 05:06:44;;;;;;;11.38;7.80;;;;;;;23.84;100.00;98411.56;1686492;83;21419;-62
2021/08/01 05:09:13;;;;;;;11.55;7.25;;;;;;;23.95;100.00;98413.48;1678259;85;20960;-63
2021/08/01 05:11:44;;;;;;;10.80;7.80;;;;;;;24.06;100.00;98413.56;1678004;85;20977;-64
2021/08/01 05:14:12;;;;;;;8.43;7.28;;;;;;;24.18;100.00;98413.56;1679122;84;20921;-64
2021/08/01 05:16:41;;;;;;;11.90;7.90;;;;;;;24.28;100.00;98413.77;1677920;85;21501;-66
2021/08/01 05:19:09;;;;;;;19.12;8.75;;;;;;;24.38;100.00;98416.16;1677660;85;20985;-64
2021/08/01 05:21:37;;;;;;;15.93;8.88;;;;;;;24.48;100.00;98417.69;1683889;83;21032;-62
2021/08/01 05:24:06;;;;;;;12.53;8.33;;;;;;;24.54;100.00;98421.77;1706363;83;21068;-64
2021/08/01 05:26:35;;;;;;;16.23;7.58;;;;;;;24.58;100.00;98411.98;1706659;83;20897;-66
2021/08/01 05:29:03;;;;;;;12.88;7.83;;;;;;;24.58;100.00;98406.59;1706175;83;21152;-66
2021/08/01 05:31:31;;;;;;;23.35;7.33;;;;;;;24.58;100.00;98409.28;1679905;84;21016;-63
2021/08/01 05:33:59;;;;;;;19.95;7.70;;;;;;;24.59;100.00;98408.31;1678063;85;20977;-62
2021/08/01 05:36:27;;;;;;;19.87;7.35;;;;;;;24.65;100.00;98415.11;1679343;84;21097;-63
2021/08/01 05:38:55;;;;;;;13.25;6.87;;;;;;;24.70;100.00;98408.39;1686501;83;21466;-64
2021/08/01 05:41:24;;;;;;;14.53;7.80;;;;;;;24.76;100.00;98413.33;1675230;85;21368;-63
2021/08/01 05:43:52;;;;;;;14.87;7.90;;;;;;;24.80;100.00;98412.11;1682067;84;20979;-61
2021/08/01 05:46:20;;;;;;;12.20;7.47;;;;;;;24.83;100.00;98408.33;1685306;84;22134;-63
2021/08/01 05:48:48;;;;;;;10.72;7.33;;;;;;;24.88;100.00;98411.53;1695556;84;20995;-63
2021/08/01 05:51:19;;;;;;;12.47;7.92;;;;;;;24.94;100.00;98410.20;1680214;83;21554;-65
2021/08/01 05:53:47;;;;;;;12.07;7.30;;;;;;;25.01;100.00;98416.39;1678620;84;21570;-64
2021/08/01 05:56:15;;;;;;;9.43;6.50;;;;;;;25.08;100.00;98416.81;1683648;84;21007;-65
2021/08/01 05:58:44;;;;;;;12.00;7.33;;;;;;;25.19;100.00;98414.64;1678876;84;20964;-64
2021/08/01 06:01:16;;;;;;;12.63;7.17;;;;;;;25.30;100.00;98413.31;1686349;84;21030;-65
2021/08/01 06:03:45;;;;;;;11.97;7.62;;;;;;;25.38;100.00;98411.73;1703803;83;20942;-65
2021/08/01 06:06:18;;;;;;;14.30;7.90;;;;;;;25.47;100.00;98416.90;1703985;83;21127;-63
2021/08/01 06:08:47;;;;;;;50.78;11.00;;;;;;;25.54;100.00;98419.52;1703560;83;21001;-66
2021/08/01 06:11:16;;;;;;;46.23;11.95;;;;;;;25.57;100.00;98419.28;1677629;84;21090;-64
2021/08/01 06:13:46;;;;;;;14.98;8.03;;;;;;;25.59;100.00;98421.86;1676189;84;20998;-65
2021/08/01 06:16:14;;;;;;;13.60;8.33;;;;;;;25.58;100.00;98420.14;1688580;83;21447;-72
2021/08/01 06:18:43;;;;;;;12.80;7.80;;;;;;;25.61;100.00;98425.30;1696358;84;21144;-64
2021/08/01 06:21:16;;;;;;;11.20;7.53;;;;;;;25.68;100.00;98427.42;1677024;84;20956;-71
2021/08/01 06:23:49;;;;;;;15.10;8.78;;;;;;;25.75;100.00;98433.69;1682302;83;21410;-69
2021/08/01 06:26:18;;;;;;;21.05;9.88;;;;;;;25.78;100.00;98432.09;1695724;84;21028;-66
2021/08/01 06:28:47;;;;;;;50.55;9.13;;;;;;;25.81;100.00;98431.36;1668235;84;21028;-74
2021/08/01 06:31:15;;;;;;;17.82;7.30;;;;;;;25.83;100.00;98436.64;1675165;85;23474;-73
2021/08/01 06:33:44;;;;;;;14.15;7.75;;;;;;;25.89;100.00;98436.15;1676643;83;21050;-74
2021/08/01 06:36:14;;;;;;;9.80;6.75;;;;;;;25.99;100.00;98434.43;1672993;85;20979;-71
2021/08/01 06:38:44;;;;;;;14.73;6.85;;;;;;;26.10;100.00;98441.70;1678230;85;20971;-65
2021/08/01 06:41:12;;;;;;;11.60;6.95;;;;;;;26.16;100.00;98441.20;1681533;85;20993;-69
2021/08/01 06:43:40;;;;;;;15.08;7.45;;;;;;;26.16;100.00;98433.95;1681559;85;21180;-69
2021/08/01 06:46:08;;;;;;;15.15;7.28;;;;;;;26.18;100.00;98435.19;1681692;85;21519;-68
2021/08/01 06:48:41;;;;;;;10.53;7.85;;;;;;;26.18;100.00;98440.59;1676123;85;21075;-68
2021/08/01 06:51:09;;;;;;;11.97;7.58;;;;;;;26.18;100.00;98441.45;1682620;85;21492;-69
2021/08/01 06:53:38;;;;;;;10.08;7.35;;;;;;;26.15;100.00;98434.08;1686440;83;20914;-72
2021/08/01 06:56:07;;;;;;;16.82;8.18;;;;;;;26.10;100.00;98434.45;1683585;83;21166;-72
2021/08/01 06:58:36;;;;;;;10.90;7.28;;;;;;;26.06;100.00;98434.83;1690209;83;21003;-72
2021/08/01 07:01:08;;;;;;;9.68;6.78;;;;;;;26.02;100.00;98432.86;1682183;83;21590;-71
2021/08/01 07:03:37;;;;;;;10.53;7.60;;;;;;;26.02;100.00;98439.62;1692334;83;20960;-71
2021/08/01 07:06:05;;;;;;;14.58;8.63;;;;;;;26.04;100.00;98441.70;1696339;83;20963;-71
2021/08/01 07:08:32;;;;;;;12.98;7.80;;;;;;;26.00;100.00;98442.41;1682143;85;22065;-70
2021/08/01 07:11:00;;;;;;;30.35;8.80;;;;;;;25.98;100.00;98450.27;1681936;85;20894;-70
2021/08/01 07:13:30;;;;;;;13.10;7.90;;;;;;;25.95;100.00;98458.13;1682544;85;20879;-70
2021/08/01 07:16:05;;;;;;;21.17;8.88;;;;;;;25.90;100.00;98453.59;1682556;85;21350;-70
2021/08/01 07:18:34;;;;;;;13.75;8.83;;;;;;;25.85;100.00;98450.39;1682512;83;21078;-70
2021/08/01 07:21:02;;;;;;;13.70;7.87;;;;;;;25.84;100.00;98452.73;1693669;83;21172;-71
2021/08/01 07:23:30;;;;;;;24.90;8.85;;;;;;;25.84;100.00;98447.33;1684387;83;20992;-69
2021/08/01 07:25:58;;;;;;;15.65;8.83;;;;;;;25.86;100.00;98441.30;1682722;85;20999;-69
2021/08/01 07:28:26;;;;;;;12.85;8.55;;;;;;;25.87;100.00;98440.81;1682709;85;21063;-67
2021/08/01 07:30:54;;;;;;;15.85;8.30;;;;;;;25.88;100.00;98446.09;1682869;85;21470;-63
2021/08/01 07:33:22;;;;;;;20.50;8.58;;;;;;;25.89;100.00;98441.06;1686782;83;21463;-70
2021/08/01 07:35:50;;;;;;;17.80;8.28;;;;;;;25.90;100.00;98442.78;1682448;85;20876;-69
2021/08/01 07:38:19;;;;;;;13.20;8.45;;;;;;;25.92;100.00;98438.11;1681786;85;21076;-69
2021/08/01 07:40:46;;;;;;;12.70;7.83;;;;;;;26.01;100.00;98442.81;1679775;85;20888;-68
2021/08/01 07:43:14;;;;;;;31.20;8.50;;;;;;;26.11;100.00;98443.42;1679877;85;20940;-68
2021/08/01 07:45:42;;;;;;;10.18;7.53;;;;;;;26.21;100.00;98445.75;1680194;84;21178;-68
2021/08/01 07:48:10;;;;;;;14.47;7.53;;;;;;;26.30;100.00;98447.20;1657136;85;21010;-68
2021/08/01 07:50:39;;;;;;;12.73;7.75;;;;;;;26.33;100.00;98445.64;1706491;84;20939;-68
2021/08/01 07:53:07;;;;;;;10.23;7.60;;;;;;;26.39;100.00;98448.83;1706445;84;21549;-68
2021/08/01 07:55:35;;;;;;;11.10;7.50;;;;;;;26.44;100.00;98446.61;1706487;84;20979;-69
2021/08/01 07:58:03;;;;;;;11.95;7.28;;;;;;;26.45;100.00;98446.48;1695765;84;21184;-69
2021/08/01 08:00:31;;;;;;;16.80;7.17;;;;;;;26.48;100.00;98453.48;1682384;84;20944;-68
2021/08/01 08:02:59;;;;;;;11.88;7.97;;;;;;;26.50;100.00;98452.89;1699019;84;20990;-69
2021/08/01 08:05:26;;;;;;;8.23;7.12;;;;;;;26.55;100.00;98464.19;1679597;85;20968;-69
2021/08/01 08:07:54;;;;;;;16.37;7.78;;;;;;;26.60;100.00;98461.97;1679794;85;20892;-69
2021/08/01 08:10:23;;;;;;;9.38;7.53;;;;;;;26.66;100.00;98471.78;1679777;85;21192;-69
2021/08/01 08:12:50;;;;;;;17.90;7.58;;;;;;;26.73;100.00;98472.14;1679806;85;21411;-69
2021/08/01 08:15:20;;;;;;;16.50;8.43;;;;;;;26.80;100.00;98469.28;1679839;85;21402;-70
2021/08/01 08:17:49;;;;;;;11.38;7.87;;;;;;;26.90;100.00;98476.14;1680113;84;20960;-69
2021/08/01 08:20:18;;;;;;;10.05;7.62;;;;;;;26.87;100.00;98473.20;1673701;85;20964;-70
2021/08/01 08:22:46;;;;;;;9.30;7.45;;;;;;;26.83;100.00;98466.33;1671413;85;21811;-68
2021/08/01 08:25:14;;;;;;;9.58;7.53;;;;;;;26.84;100.00;98472.11;1676240;85;20916;-68
2021/08/01 08:27:42;;;;;;;16.65;8.20;;;;;;;26.81;100.00;98468.80;1673082;85;21048;-68
2021/08/01 08:30:11;;;;;;;18.77;8.98;;;;;;;26.80;100.00;98467.08;1664991;85;20980;-69
2021/08/01 08:32:41;;;;;;;10.93;8.03;;;;;;;26.84;100.00;98476.16;1665265;85;21094;-70
2021/08/01 08:35:10;;;;;;;10.72;8.78;;;;;;;26.88;100.00;98474.92;1664922;85;21180;-69
2021/08/01 08:37:49;;;;;;;13.60;7.95;;;;;;;26.89;100.00;98473.93;1664801;85;20973;-69
2021/08/01 08:40:18;;;;;;;16.57;7.90;;;;;;;26.90;100.00;98467.53;1666751;85;20972;-69
2021/08/01 08:42:49;;;;;;;10.30;8.78;;;;;;;26.93;100.00;98469.13;1662226;85;20942;-69
2021/08/01 08:45:18;;;;;;;11.33;7.87;;;;;;;26.94;100.00;98474.41;1642031;84;20971;-68
2021/08/01 08:47:48;;;;;;;11.90;8.08;;;;;;;26.95;100.00;98468.50;1643262;85;21846;-68
2021/08/01 08:50:20;;;;;;;11.35;8.08;;;;;;;27.00;100.00;98462.27;1653448;86;20908;-67
2021/08/01 08:52:58;;;;;;;73.28;10.95;;;;;;;27.04;100.00;98470.50;1666326;85;20976;-67
2021/08/01 08:55:28;;;;;;;11.05;8.58;;;;;;;27.05;100.00;98468.16;1670986;84;21071;-68
2021/08/01 08:58:00;;;;;;;10.38;7.90;;;;;;;27.11;100.00;98473.55;1653902;86;21016;-68
2021/08/01 09:00:27;;;;;;;9.90;8.20;;;;;;;27.18;100.00;98474.25;1653715;86;21152;-67
2021/08/01 09:02:56;;;;;;;9.68;8.08;;;;;;;27.25;100.00;98475.45;1648068;86;20871;-68
2021/08/01 09:05:24;;;;;;;14.33;7.92;;;;;;;27.36;100.00;98481.30;1653633;86;20933;-68
2021/08/01 09:07:51;;;;;;;15.45;8.20;;;;;;;27.48;100.00;98477.57;1653587;86;21009;-69
2021/08/01 09:10:20;;;;;;;10.82;8.18;;;;;;;27.64;100.00;98475.78;1663017;86;20898;-67
2021/08/01 09:12:52;;;;;;;12.00;8.30;;;;;;;27.72;100.00;98480.53;1662507;86;21326;-68
2021/08/01 09:15:24;;;;;;;32.97;9.97;;;;;;;27.78;100.00;98486.28;1652288;86;21472;-67
2021/08/01 09:17:57;;;;;;;33.92;9.70;;;;;;;27.79;100.00;98484.42;1667803;86;21031;-68
2021/08/01 09:20:31;;;;;;;16.95;8.98;;;;;;;27.82;100.00;98486.38;1663437;86;21024;-68
2021/08/01 09:23:08;;;;;;;19.98;9.05;;;;;;;27.84;100.00;98485.74;1665549;86;21004;-68
2021/08/01 09:25:44;;;;;;;35.92;9.10;;;;;;;27.98;100.00;98483.70;1665816;85;21196;-67
2021/08/01 09:28:21;;;;;;;14.30;8.25;;;;;;;28.14;100.00;98477.28;1665331;86;21135;-68
2021/08/01 09:30:59;;;;;;;14.40;7.58;;;;;;;28.25;100.00;98477.72;1665563;86;21522;-68
2021/08/01 09:33:44;;;;;;;12.07;7.80;;;;;;;28.29;100.00;98473.73;1665592;86;20953;-68
2021/08/01 09:36:17;;;;;;;19.92;8.30;;;;;;;28.33;100.00;98480.60;1651583;84;21141;-69
2021/08/01 09:39:00;;;;;;;9.45;7.80;;;;;;;28.44;100.00;98487.31;1669615;83;21155;-70
2021/08/01 09:41:36;;;;;;;12.70;8.08;;;;;;;28.52;100.00;98486.98;1689732;84;20949;-67
2021/08/01 09:44:10;;;;;;;10.68;7.97;;;;;;;28.65;100.00;98487.23;1682091;84;21027;-69
2021/08/01 09:46:47;;;;;;;53.92;10.30;;;;;;;28.83;100.00;98482.33;1674905;84;20929;-68
2021/08/01 09:49:21;;;;;;;21.70;8.10;;;;;;;29.01;100.00;98476.27;1681000;83;21031;-67
2021/08/01 09:52:02;;;;;;;19.48;7.80;;;;;;;29.14;100.00;98475.49;1682745;83;21183;-66
2021/08/01 09:54:47;;;;;;;11.90;7.78;;;;;;;29.25;100.00;98471.77;1675160;84;20956;-67
2021/08/01 09:57:22;;;;;;;10.63;7.15;;;;;;;29.34;100.00;98462.80;1692446;84;21648;-62
2021/08/01 09:59:48;;;;;;;9.90;7.40;;;;;;;29.47;100.00;98451.16;1675253;84;20991;-63
2021/08/01 10:02:17;;;;;;;17.02;7.75;;;;;;;29.66;100.00;98454.34;1644932;87;20962;-62
2021/08/01 10:04:45;;;;;;;176.95;21.97;;;;;;;29.84;100.00;98446.30;1677948;84;21179;-62
2021/08/01 10:07:34;;;;;;;39.05;10.80;;;;;;;29.93;100.00;98445.42;1678075;84;20914;-62
2021/08/01 10:10:04;;;;;;;26.23;8.98;;;;;;;29.87;100.00;98441.43;1660393;85;20908;-62
2021/08/01 10:12:33;;;;;;;12.68;7.33;;;;;;;30.03;100.00;98444.91;1635641;85;20932;-62
2021/08/01 10:15:04;;;;;;;8.85;7.15;;;;;;;30.23;100.00;98438.87;1639161;84;20857;-63
2021/08/01 10:17:32;;;;;;;10.05;6.95;;;;;;;30.42;100.00;98432.00;1685664;84;21125;-63
2021/08/01 10:20:00;;;;;;;18.10;7.90;;;;;;;30.50;100.00;98424.44;1685493;84;20964;-63
2021/08/01 10:22:28;;;;;;;14.60;7.37;;;;;;;30.55;100.00;98425.70;1685482;84;20957;-64
2021/08/01 10:25:00;;;;;;;11.57;6.70;;;;;;;30.67;100.00;98423.64;1688485;84;21516;-64
2021/08/01 10:27:27;;;;;;;12.10;6.87;;;;;;;30.83;100.00;98413.45;1697484;84;20930;-63
2021/08/01 10:29:55;;;;;;;9.55;7.15;;;;;;;30.95;100.00;98418.52;1702491;84;21968;-63
2021/08/01 10:32:25;;;;;;;8.58;6.60;;;;;;;31.01;100.00;98413.80;1702662;84;20894;-62
2021/08/01 10:35:17;;;;;;;91.30;15.08;;;;;;;31.09;100.00;98417.11;1702431;84;21010;-63
2021/08/01 10:37:51;;;;;;;19.02;6.45;;;;;;;31.17;100.00;98414.48;1702355;84;21119;-63
2021/08/01 10:40:21;;;;;;;13.35;6.17;;;;;;;31.26;100.00;98414.94;1702517;83;21644;-63
2021/08/01 10:42:54;;;;;;;8.75;6.12;;;;;;;31.39;100.00;98412.31;1687059;84;21163;-63
2021/08/01 10:45:23;;;;;;;10.15;6.25;;;;;;;31.44;100.00;98412.18;1696738;83;20862;-65
2021/08/01 10:47:53;;;;;;;10.68;6.40;;;;;;;31.58;100.00;98417.55;1690136;84;21621;-69
2021/08/01 10:50:25;;;;;;;12.90;6.42;;;;;;;31.72;100.00;98418.91;1684913;83;21607;-67
2021/08/01 10:53:23;;;;;;;25.82;7.95;;;;;;;31.81;100.00;98409.75;1656717;85;21525;-65
2021/08/01 10:56:18;;;;;;;13.03;6.70;;;;;;;31.85;100.00;98406.55;1683797;83;21148;-63
2021/08/01 10:58:46;;;;;;;11.55;6.12;;;;;;;31.94;100.00;98403.34;1670431;83;21016;-68
2021/08/01 11:01:14;;;;;;;13.03;6.87;;;;;;;32.09;100.00;98402.23;1685310;83;20958;-63
2021/08/01 11:03:42;;;;;;;11.12;6.40;;;;;;;32.23;100.00;98410.68;1684174;83;21056;-65
2021/08/01 11:06:46;;;;;;;8.75;7.30;;;;;;;32.33;98.61;98402.90;1683995;83;20987;-65
2021/08/01 11:09:14;;;;;;;11.12;7.70;;;;;;;32.39;98.79;98404.97;1679350;83;21406;-65
2021/08/01 11:11:48;;;;;;;10.65;6.75;;;;;;;32.52;100.00;98399.38;1678755;83;21524;-63
2021/08/01 11:14:47;;;;;;;9.45;6.75;;;;;;;32.63;100.00;98400.94;1678638;83;20970;-64
2021/08/01 11:17:17;;;;;;;14.10;6.30;;;;;;;32.68;98.00;98405.94;1661605;85;21508;-65
2021/08/01 11:19:45;;;;;;;13.18;6.42;;;;;;;32.65;96.97;98404.39;1678953;83;20950;-65
2021/08/01 11:22:46;;;;;;;13.53;6.37;;;;;;;32.60;94.82;98396.32;1679260;83;21247;-65
2021/08/01 11:25:33;;;;;;;12.25;6.90;;;;;;;32.53;94.16;98397.50;1679207;85;20926;-64
2021/08/01 11:28:16;;;;;;;8.98;6.08;;;;;;;32.40;95.68;98399.85;1675132;85;20914;-65
2021/08/01 11:31:01;;;;;;;11.35;6.78;;;;;;;32.31;97.62;98404.94;1679383;83;20902;-66
2021/08/01 11:33:40;;;;;;;12.37;6.95;;;;;;;32.19;97.86;98401.11;1676326;83;21424;-65
2021/08/01 11:36:16;;;;;;;27.82;14.78;;;;;;;32.09;96.09;98397.62;1679128;85;21137;-65
2021/08/01 11:38:56;;;;;;;35.10;8.88;;;;;;;32.12;100.00;98395.08;1678950;84;20963;-65
2021/08/01 11:41:37;;;;;;;11.08;6.83;;;;;;;32.28;100.00;98392.48;1678555;85;21799;-65
2021/08/01 11:44:20;;;;;;;9.63;6.58;;;;;;;32.45;100.00;98392.87;1679339;84;20914;-66